Time;durP1;ratioP1;P1;durP2;ratioP2;P2;SDS_P1;SDS_P2;PMS_P1;PMS_P2;Temp;Humidity;BMP_temperature;BMP_pressure;BME280_temperature;BME280_humidity;BME280_pressure;Samples;Min_cycle;Max_cycle;Signal;HPM_P1;HPM_P2
2024/01/02 00:00:19;;;;;;;;;;;;;;;;;;5023719;28;60410;-80
2024/01/02 00:02:44;;;;;;;;;;;;;;;;;;5022439;28;59023;-81
2024/01/02 00:05:09;;;;;;;;;;;;;;;;;;5025173;28;58807;-78
2024/01/02 00:07:34;;;;;;;;;;;;;;;;;;5022595;27;58416;-78
2024/01/02 00:09:59;;;;;;;;;;;;;;;;;;5023035;27;61676;-78
2024/01/02 00:12:25;;;;;;;;;;;;;;;;;;5023533;28;58846;-79
2024/01/02 00:14:50;;;;;;;;;;;;;;;;;;5024519;28;60222;-78
2024/01/02 00:17:15;;;;;;;;;;;;;;;;;;5023941;28;59173;-76
2024/01/02 00:19:40;;;;;;;;;;;;;;;;;;5023795;28;58894;-77
2024/01/02 00:22:05;;;;;;;;;;;;;;;;;;5022381;28;58934;-76
2024/01/02 00:24:30;;;;;;;;;;;;;;;;;;5023641;27;58392;-80
2024/01/02 00:26:55;;;;;;;;;;;;;;;;;;5022780;28;60086;-81
2024/01/02 00:29:20;;;;;;;;;;;;;;;;;;5023669;28;58604;-81
2024/01/02 00:31:46;;;;;;;;;;;;;;;;;;5024181;28;58587;-79
2024/01/02 00:34:11;;;;;;;;;;;;;;;;;;5021061;28;60336;-84
2024/01/02 00:36:36;;;;;;;;;;;;;;;;;;5023308;28;59832;-81
2024/01/02 00:39:01;;;;;;;;;;;;;;;;;;5023777;28;58373;-81
2024/01/02 00:41:26;;;;;;;;;;;;;;;;;;5023076;28;59158;-82
2024/01/02 00:43:51;;;;;;;;;;;;;;;;;;5024434;28;59054;-79
2024/01/02 00:46:16;;;;;;;;;;;;;;;;;;5023618;28;60411;-80
2024/01/02 00:48:41;;;;;;;;;;;;;;;;;;5021380;28;60019;-83
2024/01/02 00:51:06;;;;;;;;;;;;;;;;;;5024003;28;58684;-80
2024/01/02 00:53:32;;;;;;;;;;;;;;;;;;5023894;27;60397;-79
2024/01/02 00:55:57;;;;;;;;;;;;;;;;;;5023764;28;58777;-79
2024/01/02 00:58:22;;;;;;;;;;;;;;;;;;5023651;28;58371;-80
2024/01/02 01:00:47;;;;;;;;;;;;;;;;;;5022441;28;60097;-77
2024/01/02 01:03:13;;;;;;;;;;;;;;;;;;5022540;28;58989;-76
2024/01/02 01:05:38;;;;;;;;;;;;;;;;;;5021848;28;59563;-82
2024/01/02 01:08:03;;;;;;;;;;;;;;;;;;5025608;28;58733;-77
2024/01/02 01:10:28;;;;;;;;;;;;;;;;;;5022990;28;58320;-78
2024/01/02 01:12:53;;;;;;;;;;;;;;;;;;5022651;28;60267;-81
2024/01/02 01:15:19;;;;;;;;;;;;;;;;;;5022591;28;59019;-78
2024/01/02 01:17:44;;;;;;;;;;;;;;;;;;5022874;28;58681;-78
2024/01/02 01:20:09;;;;;;;;;;;;;;;;;;5022540;28;59347;-81
2024/01/02 01:22:34;;;;;;;;;;;;;;;;;;5023444;28;58757;-81
2024/01/02 01:24:59;;;;;;;;;;;;;;;;;;5023828;28;59752;-79
2024/01/02 01:27:24;;;;;;;;;;;;;;;;;;5022117;28;59844;-80
2024/01/02 01:29:49;;;;;;;;;;;;;;;;;;5023739;28;58579;-82
2024/01/02 01:32:14;;;;;;;;;;;;;;;;;;5022395;28;59623;-81
2024/01/02 01:34:40;;;;;;;;;;;;;;;;;;5021986;28;60044;-81
2024/01/02 01:37:05;;;;;;;;;;;;;;;;;;5022286;28;58424;-81
2024/01/02 01:39:30;;;;;;;;;;;;;;;;;;5022516;28;59426;-78
2024/01/02 01:41:55;;;;;;;;;;;;;;;;;;5021988;28;59861;-80
2024/01/02 01:44:20;;;;;;;;;;;;;;;;;;5024756;28;58616;-80
2024/01/02 01:46:45;;;;;;;;;;;;;;;;;;5022960;28;59055;-81
2024/01/02 01:49:10;;;;;;;;;;;;;;;;;;5020950;27;59118;-80
2024/01/02 01:51:36;;;;;;;;;;;;;;;;;;5022190;28;59244;-80
2024/01/02 01:54:01;;;;;;;;;;;;;;;;;;5020222;28;59208;-80
2024/01/02 01:56:26;;;;;;;;;;;;;;;;;;5022928;28;59072;-81
2024/01/02 01:58:51;;;;;;;;;;;;;;;;;;5021379;28;59416;-79
2024/01/02 02:01:16;;;;;;;;;;;;;;;;;;5021935;28;58909;-80
2024/01/02 02:03:41;;;;;;;;;;;;;;;;;;5023864;28;58731;-79
2024/01/02 02:06:06;;;;;;;;;;;;;;;;;;5022400;28;58839;-78
2024/01/02 02:08:31;;;;;;;;;;;;;;;;;;5021152;28;58622;-76
2024/01/02 02:10:56;;;;;;;;;;;;;;;;;;5021941;28;59466;-75
2024/01/02 02:13:22;;;;;;;;;;;;;;;;;;5020803;28;58717;-75
2024/01/02 02:15:48;;;;;;;;;;;;;;;;;;5023004;28;58789;-82
2024/01/02 02:18:14;;;;;;;;;;;;;;;;;;5023702;28;58916;-76
2024/01/02 02:20:39;;;;;;;;;;;;;;;;;;5020701;28;58979;-81
2024/01/02 02:23:04;;;;;;;;;;;;;;;;;;5024357;28;58886;-80
2024/01/02 02:25:29;;;;;;;;;;;;;;;;;;5026601;28;59497;-79
2024/01/02 02:27:54;;;;;;;;;;;;;;;;;;5024513;28;58907;-79
2024/01/02 02:30:19;;;;;;;;;;;;;;;;;;5026328;27;59326;-80
2024/01/02 02:32:44;;;;;;;;;;;;;;;;;;5024648;28;58784;-79
2024/01/02 02:35:10;;;;;;;;;;;;;;;;;;5026974;28;58381;-78
2024/01/02 02:37:35;;;;;;;;;;;;;;;;;;5026083;28;59423;-79
2024/01/02 02:40:00;;;;;;;;;;;;;;;;;;5025574;28;59877;-80
2024/01/02 02:42:25;;;;;;;;;;;;;;;;;;5023077;28;58849;-78
2024/01/02 02:44:50;;;;;;;;;;;;;;;;;;5026559;28;60221;-78
2024/01/02 02:47:15;;;;;;;;;;;;;;;;;;5027830;28;58589;-78
2024/01/02 02:49:40;;;;;;;;;;;;;;;;;;5025736;27;58986;-79
2024/01/02 02:52:06;;;;;;;;;;;;;;;;;;5025842;28;59100;-80
2024/01/02 02:54:31;;;;;;;;;;;;;;;;;;5026378;28;59060;-80
2024/01/02 02:56:56;;;;;;;;;;;;;;;;;;5024876;28;59961;-80
2024/01/02 02:59:21;;;;;;;;;;;;;;;;;;5026356;28;59038;-80
2024/01/02 03:01:46;;;;;;;;;;;;;;;;;;5026157;28;59715;-79
2024/01/02 03:04:11;;;;;;;;;;;;;;;;;;5025109;28;60688;-80
2024/01/02 03:06:36;;;;;;;;;;;;;;;;;;5026220;27;58592;-80
2024/01/02 03:09:03;;;;;;;;;;;;;;;;;;5025107;27;61230;-80
2024/01/02 03:11:28;;;;;;;;;;;;;;;;;;5024772;27;59154;-80
2024/01/02 03:13:53;;;;;;;;;;;;;;;;;;5025367;28;59605;-79
2024/01/02 03:16:18;;;;;;;;;;;;;;;;;;5025983;28;59532;-79
2024/01/02 03:18:43;;;;;;;;;;;;;;;;;;5025626;28;59300;-75
2024/01/02 03:21:09;;;;;;;;;;;;;;;;;;5025565;28;58443;-76
2024/01/02 03:23:34;;;;;;;;;;;;;;;;;;5022740;27;59772;-76
2024/01/02 03:25:59;;;;;;;;;;;;;;;;;;5025361;28;59029;-76
2024/01/02 03:28:24;;;;;;;;;;;;;;;;;;5024532;28;58810;-72
2024/01/02 03:30:49;;;;;;;;;;;;;;;;;;5021984;28;59246;-71
2024/01/02 03:33:14;;;;;;;;;;;;;;;;;;5021128;27;58420;-71
2024/01/02 03:35:39;;;;;;;;;;;;;;;;;;5023280;28;59563;-72
2024/01/02 03:38:05;;;;;;;;;;;;;;;;;;5022449;28;59456;-73
2024/01/02 03:40:31;;;;;;;;;;;;;;;;;;5020930;28;58681;-72
2024/01/02 03:42:56;;;;;;;;;;;;;;;;;;5023360;28;59460;-72
2024/01/02 03:45:21;;;;;;;;;;;;;;;;;;5022543;28;59006;-71
2024/01/02 03:47:46;;;;;;;;;;;;;;;;;;5022165;28;58789;-71
2024/01/02 03:50:11;;;;;;;;;;;;;;;;;;5023802;28;59840;-72
2024/01/02 03:52:37;;;;;;;;;;;;;;;;;;5021495;28;58361;-72
2024/01/02 03:55:02;;;;;;;;;;;;;;;;;;5021854;27;59450;-73
2024/01/02 03:57:27;;;;;;;;;;;;;;;;;;5022320;27;58980;-71
2024/01/02 03:59:52;;;;;;;;;;;;;;;;;;5021063;27;59738;-72
2024/01/02 04:02:17;;;;;;;;;;;;;;;;;;5022216;28;59342;-71
2024/01/02 04:04:43;;;;;;;;;;;;;;;;;;5021563;28;58823;-70
2024/01/02 04:07:08;;;;;;;;;;;;;;;;;;5022268;28;58993;-70
2024/01/02 04:09:33;;;;;;;;;;;;;;;;;;5023427;28;60057;-72
2024/01/02 04:11:58;;;;;;;;;;;;;;;;;;5022535;28;58747;-71
2024/01/02 04:14:23;;;;;;;;;;;;;;;;;;5022359;28;59605;-71
2024/01/02 04:16:48;;;;;;;;;;;;;;;;;;5022872;28;59338;-71
2024/01/02 04:19:13;;;;;;;;;;;;;;;;;;5020215;27;58712;-73
2024/01/02 04:21:38;;;;;;;;;;;;;;;;;;5023109;28;60845;-71
2024/01/02 04:24:04;;;;;;;;;;;;;;;;;;5021282;28;59773;-72
2024/01/02 04:26:29;;;;;;;;;;;;;;;;;;5021062;28;58838;-70
2024/01/02 04:28:54;;;;;;;;;;;;;;;;;;5023224;28;60296;-71
2024/01/02 04:31:19;;;;;;;;;;;;;;;;;;5022293;28;58863;-71
2024/01/02 04:33:44;;;;;;;;;;;;;;;;;;5019620;28;58485;-70
2024/01/02 04:36:09;;;;;;;;;;;;;;;;;;5021679;28;58779;-70
2024/01/02 04:38:35;;;;;;;;;;;;;;;;;;5023665;27;58577;-71
2024/01/02 04:41:01;;;;;;;;;;;;;;;;;;5020268;28;59716;-73
2024/01/02 04:43:27;;;;;;;;;;;;;;;;;;5021601;28;58468;-71
2024/01/02 04:45:52;;;;;;;;;;;;;;;;;;5021908;27;58772;-71
2024/01/02 04:48:17;;;;;;;;;;;;;;;;;;5021084;28;60306;-70
2024/01/02 04:50:42;;;;;;;;;;;;;;;;;;5020162;28;59226;-70
2024/01/02 04:53:07;;;;;;;;;;;;;;;;;;5022909;28;58876;-71
2024/01/02 04:55:32;;;;;;;;;;;;;;;;;;5019743;28;58963;-71
2024/01/02 04:57:57;;;;;;;;;;;;;;;;;;5020150;28;59711;-70
2024/01/02 05:00:22;;;;;;;;;;;;;;;;;;5022120;28;60402;-72
2024/01/02 05:02:47;;;;;;;;;;;;;;;;;;5019459;28;59140;-72
2024/01/02 05:05:13;;;;;;;;;;;;;;;;;;5023662;28;58386;-71
2024/01/02 05:07:38;;;;;;;;;;;;;;;;;;5022772;28;58638;-70
2024/01/02 05:10:03;;;;;;;;;;;;;;;;;;5021284;28;59398;-73
2024/01/02 05:12:28;;;;;;;;;;;;;;;;;;5021455;28;58889;-70
2024/01/02 05:14:53;;;;;;;;;;;;;;;;;;5022741;28;58528;-70
2024/01/02 05:17:19;;;;;;;;;;;;;;;;;;5020425;28;59532;-71
2024/01/02 05:19:44;;;;;;;;;;;;;;;;;;5022376;28;59314;-70
2024/01/02 05:22:09;;;;;;;;;;;;;;;;;;5020033;28;59120;-70
2024/01/02 05:24:34;;;;;;;;;;;;;;;;;;5021585;27;58423;-70
2024/01/02 05:26:59;;;;;;;;;;;;;;;;;;5022467;28;58894;-70
2024/01/02 05:29:24;;;;;;;;;;;;;;;;;;5019750;28;59921;-72
2024/01/02 05:31:50;;;;;;;;;;;;;;;;;;5022064;28;59645;-70
2024/01/02 05:34:15;;;;;;;;;;;;;;;;;;5022111;28;59261;-71
2024/01/02 05:36:40;;;;;;;;;;;;;;;;;;5021960;28;59125;-71
2024/01/02 05:39:05;;;;;;;;;;;;;;;;;;5023110;28;59594;-76
2024/01/02 05:41:30;;;;;;;;;;;;;;;;;;5020293;28;59676;-76
2024/01/02 05:43:55;;;;;;;;;;;;;;;;;;5019437;28;58587;-77
2024/01/02 05:46:20;;;;;;;;;;;;;;;;;;5022891;28;58514;-76
2024/01/02 05:48:45;;;;;;;;;;;;;;;;;;5022249;28;58899;-70
2024/01/02 05:51:10;;;;;;;;;;;;;;;;;;5022976;28;58697;-71
2024/01/02 05:53:35;;;;;;;;;;;;;;;;;;5020104;28;60146;-70
2024/01/02 05:56:01;;;;;;;;;;;;;;;;;;5022473;28;59879;-71
2024/01/02 05:58:26;;;;;;;;;;;;;;;;;;5024926;27;58770;-70
2024/01/02 06:00:51;;;;;;;;;;;;;;;;;;5024852;28;58731;-70
2024/01/02 06:03:16;;;;;;;;;;;;;;;;;;5024761;28;58448;-72
2024/01/02 06:05:41;;;;;;;;;;;;;;;;;;5023953;28;59176;-71
2024/01/02 06:08:06;;;;;;;;;;;;;;;;;;5024333;28;59140;-71
2024/01/02 06:10:31;;;;;;;;;;;;;;;;;;5026458;28;58886;-73
2024/01/02 06:12:56;;;;;;;;;;;;;;;;;;5025396;28;60151;-72
2024/01/02 06:15:22;;;;;;;;;;;;;;;;;;5025253;27;58695;-71
2024/01/02 06:17:47;;;;;;;;;;;;;;;;;;5024627;28;58539;-71
2024/01/02 06:20:12;;;;;;;;;;;;;;;;;;5023756;28;58388;-71
2024/01/02 06:22:37;;;;;;;;;;;;;;;;;;5024631;28;58950;-71
2024/01/02 06:25:03;;;;;;;;;;;;;;;;;;5025346;28;60436;-72
2024/01/02 06:27:28;;;;;;;;;;;;;;;;;;5023527;28;58758;-70
2024/01/02 06:29:53;;;;;;;;;;;;;;;;;;5024830;28;58780;-71
2024/01/02 06:32:18;;;;;;;;;;;;;;;;;;5025232;28;60004;-71
2024/01/02 06:34:44;;;;;;;;;;;;;;;;;;5024558;28;59532;-71
2024/01/02 06:37:09;;;;;;;;;;;;;;;;;;5025078;28;59085;-72
2024/01/02 06:39:34;;;;;;;;;;;;;;;;;;5025094;28;59797;-71
2024/01/02 06:41:59;;;;;;;;;;;;;;;;;;5022350;28;59795;-71
2024/01/02 06:44:24;;;;;;;;;;;;;;;;;;5023971;28;59986;-71
2024/01/02 06:46:49;;;;;;;;;;;;;;;;;;5023950;28;58983;-70
2024/01/02 06:49:14;;;;;;;;;;;;;;;;;;5025939;27;58430;-72
2024/01/02 06:51:39;;;;;;;;;;;;;;;;;;5024995;28;58859;-72
2024/01/02 06:54:04;;;;;;;;;;;;;;;;;;5022747;28;58772;-71
2024/01/02 06:56:29;;;;;;;;;;;;;;;;;;5026236;28;58469;-71
2024/01/02 06:58:55;;;;;;;;;;;;;;;;;;5026184;28;60352;-71
2024/01/02 07:01:20;;;;;;;;;;;;;;;;;;5024699;28;59181;-71
2024/01/02 07:03:45;;;;;;;;;;;;;;;;;;5024282;28;59630;-71
2024/01/02 07:06:10;;;;;;;;;;;;;;;;;;5022441;27;59690;-71
2024/01/02 07:08:36;;;;;;;;;;;;;;;;;;5021869;28;60001;-71
2024/01/02 07:11:01;;;;;;;;;;;;;;;;;;5025131;28;60081;-71
2024/01/02 07:13:26;;;;;;;;;;;;;;;;;;5025133;28;58600;-71
2024/01/02 07:15:51;;;;;;;;;;;;;;;;;;5023985;27;58429;-71
2024/01/02 07:18:16;;;;;;;;;;;;;;;;;;5022336;27;60491;-71
2024/01/02 07:20:41;;;;;;;;;;;;;;;;;;5021425;28;59545;-71
2024/01/02 07:23:06;;;;;;;;;;;;;;;;;;5025121;28;58589;-71
2024/01/02 07:25:31;;;;;;;;;;;;;;;;;;5023174;28;58782;-71
2024/01/02 07:27:56;;;;;;;;;;;;;;;;;;5023647;28;58572;-72
2024/01/02 07:30:22;;;;;;;;;;;;;;;;;;5024429;28;61367;-71
2024/01/02 07:32:47;;;;;;;;;;;;;;;;;;5022524;28;58829;-72
2024/01/02 07:35:12;;;;;;;;;;;;;;;;;;5024735;28;58636;-71
2024/01/02 07:37:37;;;;;;;;;;;;;;;;;;5023138;27;60409;-72
2024/01/02 07:40:02;;;;;;;;;;;;;;;;;;5022933;28;59129;-72
2024/01/02 07:42:27;;;;;;;;;;;;;;;;;;5022140;27;58591;-73
2024/01/02 07:44:52;;;;;;;;;;;;;;;;;;5024426;28;59230;-72
2024/01/02 07:47:17;;;;;;;;;;;;;;;;;;5023610;28;59021;-71
2024/01/02 07:49:43;;;;;;;;;;;;;;;;;;5025253;28;58862;-72
2024/01/02 07:52:08;;;;;;;;;;;;;;;;;;5023466;28;59674;-70
2024/01/02 07:54:34;;;;;;;;;;;;;;;;;;5020909;28;58672;-73
2024/01/02 07:56:59;;;;;;;;;;;;;;;;;;5022817;28;59634;-70
2024/01/02 07:59:25;;;;;;;;;;;;;;;;;;5022812;28;58931;-71
2024/01/02 08:01:50;;;;;;;;;;;;;;;;;;5025087;28;58547;-71
2024/01/02 08:04:16;;;;;;;;;;;;;;;;;;5024094;28;59251;-72
2024/01/02 08:06:41;;;;;;;;;;;;;;;;;;5023338;28;58859;-72
2024/01/02 08:09:06;;;;;;;;;;;;;;;;;;5024310;28;59142;-76
2024/01/02 08:11:31;;;;;;;;;;;;;;;;;;5022263;28;59787;-77
2024/01/02 08:13:56;;;;;;;;;;;;;;;;;;5023441;28;59277;-77
2024/01/02 08:16:21;;;;;;;;;;;;;;;;;;5023341;28;60267;-76
2024/01/02 08:18:46;;;;;;;;;;;;;;;;;;5022861;28;59006;-73
2024/01/02 08:21:12;;;;;;;;;;;;;;;;;;5019497;28;58748;-72
2024/01/02 08:23:38;;;;;;;;;;;;;;;;;;5022530;28;59539;-70
2024/01/02 08:26:03;;;;;;;;;;;;;;;;;;5021980;28;59634;-72
2024/01/02 08:28:28;;;;;;;;;;;;;;;;;;5023656;28;58360;-70
2024/01/02 08:30:54;;;;;;;;;;;;;;;;;;5023051;28;59588;-73
2024/01/02 08:33:19;;;;;;;;;;;;;;;;;;5020948;28;58787;-71
2024/01/02 08:35:44;;;;;;;;;;;;;;;;;;5022405;28;59252;-70
2024/01/02 08:38:09;;;;;;;;;;;;;;;;;;5021440;28;58921;-70
2024/01/02 08:40:34;;;;;;;;;;;;;;;;;;5022049;28;58361;-73
2024/01/02 08:43:00;;;;;;;;;;;;;;;;;;5022391;28;59417;-71
2024/01/02 08:45:26;;;;;;;;;;;;;;;;;;5022597;28;59010;-71
2024/01/02 08:47:51;;;;;;;;;;;;;;;;;;5020915;28;58675;-70
2024/01/02 08:50:16;;;;;;;;;;;;;;;;;;5023881;28;58821;-71
2024/01/02 08:52:41;;;;;;;;;;;;;;;;;;5023021;28;58703;-72
2024/01/02 08:55:06;;;;;;;;;;;;;;;;;;5023047;28;59347;-74
2024/01/02 08:57:31;;;;;;;;;;;;;;;;;;5021447;28;59015;-71
2024/01/02 08:59:56;;;;;;;;;;;;;;;;;;5021865;27;59607;-71
2024/01/02 09:02:22;;;;;;;;;;;;;;;;;;5021455;28;59569;-70
2024/01/02 09:04:47;;;;;;;;;;;;;;;;;;5022075;28;59254;-71
2024/01/02 09:07:12;;;;;;;;;;;;;;;;;;5021138;28;58795;-71
2024/01/02 09:09:37;;;;;;;;;;;;;;;;;;5022664;28;60385;-71
2024/01/02 09:12:02;;;;;;;;;;;;;;;;;;5020722;27;58459;-73
2024/01/02 09:14:27;;;;;;;;;;;;;;;;;;5022106;28;58796;-71
2024/01/02 09:16:52;;;;;;;;;;;;;;;;;;5022923;28;58923;-71
2024/01/02 09:19:17;;;;;;;;;;;;;;;;;;5022297;28;59175;-76
2024/01/02 09:21:43;;;;;;;;;;;;;;;;;;5022191;28;58754;-77
2024/01/02 09:24:08;;;;;;;;;;;;;;;;;;5019851;28;59772;-77
2024/01/02 09:26:33;;;;;;;;;;;;;;;;;;5020713;28;58977;-77
2024/01/02 09:28:58;;;;;;;;;;;;;;;;;;5020237;28;59663;-76
2024/01/02 09:31:26;;;;;;;;;;;;;;;;;;5020159;28;58983;-76
2024/01/02 09:33:51;;;;;;;;;;;;;;;;;;5022082;28;59871;-76
2024/01/02 09:36:16;;;;;;;;;;;;;;;;;;5021599;28;60595;-76
2024/01/02 09:38:41;;;;;;;;;;;;;;;;;;5023076;28;58592;-75
2024/01/02 09:41:06;;;;;;;;;;;;;;;;;;5023256;28;58404;-76
2024/01/02 09:43:31;;;;;;;;;;;;;;;;;;5020387;28;58956;-77
2024/01/02 09:45:57;;;;;;;;;;;;;;;;;;5021794;28;58676;-75
2024/01/02 09:48:22;;;;;;;;;;;;;;;;;;5022774;28;59550;-77
2024/01/02 09:50:47;;;;;;;;;;;;;;;;;;5019459;28;59410;-75
2024/01/02 09:53:12;;;;;;;;;;;;;;;;;;5023733;28;60015;-76
2024/01/02 09:55:37;;;;;;;;;;;;;;;;;;5020681;27;59665;-75
2024/01/02 09:58:02;;;;;;;;;;;;;;;;;;5019455;28;58538;-76
2024/01/02 10:00:27;;;;;;;;;;;;;;;;;;5020712;28;58561;-75
2024/01/02 10:02:52;;;;;;;;;;;;;;;;;;5018930;28;58964;-76
2024/01/02 10:05:18;;;;;;;;;;;;;;;;;;5021127;28;58490;-76
2024/01/02 10:07:43;;;;;;;;;;;;;;;;;;5020891;28;59204;-76
2024/01/02 10:10:09;;;;;;;;;;;;;;;;;;5021210;28;59052;-76
2024/01/02 10:12:34;;;;;;;;;;;;;;;;;;5019424;28;58400;-77
2024/01/02 10:14:59;;;;;;;;;;;;;;;;;;5020618;28;58896;-76
2024/01/02 10:17:24;;;;;;;;;;;;;;;;;;5021477;27;58298;-77
2024/01/02 10:19:49;;;;;;;;;;;;;;;;;;5021475;28;58735;-76
2024/01/02 10:22:14;;;;;;;;;;;;;;;;;;5020247;28;58596;-76
2024/01/02 10:24:39;;;;;;;;;;;;;;;;;;5019320;28;58795;-76
2024/01/02 10:27:04;;;;;;;;;;;;;;;;;;5018488;28;60315;-76
2024/01/02 10:29:29;;;;;;;;;;;;;;;;;;5018381;28;58919;-72
2024/01/02 10:31:54;;;;;;;;;;;;;;;;;;5021538;28;58430;-73
2024/01/02 10:34:21;;;;;;;;;;;;;;;;;;5022052;28;59310;-73
2024/01/02 10:36:46;;;;;;;;;;;;;;;;;;5021736;27;58927;-73
2024/01/02 10:39:11;;;;;;;;;;;;;;;;;;5020793;28;61318;-70
2024/01/02 10:41:36;;;;;;;;;;;;;;;;;;5019025;28;60233;-70
2024/01/02 10:44:01;;;;;;;;;;;;;;;;;;5022372;28;58405;-70
2024/01/02 10:46:26;;;;;;;;;;;;;;;;;;5025394;28;60354;-70
2024/01/02 10:48:51;;;;;;;;;;;;;;;;;;5024600;28;58945;-70
2024/01/02 10:51:17;;;;;;;;;;;;;;;;;;5025551;28;59294;-71
2024/01/02 10:53:42;;;;;;;;;;;;;;;;;;5023209;28;59409;-71
2024/01/02 10:56:08;;;;;;;;;;;;;;;;;;5023447;28;58889;-70
2024/01/02 10:58:33;;;;;;;;;;;;;;;;;;5024426;28;59039;-75
2024/01/02 11:00:58;;;;;;;;;;;;;;;;;;5022542;28;59651;-76
2024/01/02 11:03:25;;;;;;;;;;;;;;;;;;5024647;28;58501;-75
2024/01/02 11:05:50;;;;;;;;;;;;;;;;;;5024689;28;60401;-76
2024/01/02 11:08:15;;;;;;;;;;;;;;;;;;5022744;28;58740;-76
2024/01/02 11:10:41;;;;;;;;;;;;;;;;;;5023454;28;58704;-76
2024/01/02 11:13:06;;;;;;;;;;;;;;;;;;5024049;28;58464;-77
2024/01/02 11:15:31;;;;;;;;;;;;;;;;;;5021797;28;58805;-77
2024/01/02 11:17:56;;;;;;;;;;;;;;;;;;5025237;28;59112;-76
2024/01/02 11:20:21;;;;;;;;;;;;;;;;;;5021269;28;58644;-76
2024/01/02 11:22:46;;;;;;;;;;;;;;;;;;5021751;28;58677;-76
2024/01/02 11:25:12;;;;;;;;;;;;;;;;;;5022552;28;61518;-77
2024/01/02 11:27:37;;;;;;;;;;;;;;;;;;5023989;27;58831;-76
2024/01/02 11:30:02;;;;;;;;;;;;;;;;;;5021952;28;59068;-77
2024/01/02 11:32:27;;;;;;;;;;;;;;;;;;5023614;28;59302;-77
2024/01/02 11:34:58;;;;;;;;;;;;;;;;;;5022449;28;59431;-79
2024/01/02 11:37:23;;;;;;;;;;;;;;;;;;5020923;27;58127;-77
2024/01/02 11:39:49;;;;;;;;;;;;;;;;;;5023238;28;59109;-75
2024/01/02 11:42:14;;;;;;;;;;;;;;;;;;5023708;28;58931;-76
2024/01/02 11:44:39;;;;;;;;;;;;;;;;;;5024743;27;59032;-77
2024/01/02 11:47:04;;;;;;;;;;;;;;;;;;5024419;28;58701;-77
2024/01/02 11:49:30;;;;;;;;;;;;;;;;;;5024177;28;58585;-72
2024/01/02 11:51:56;;;;;;;;;;;;;;;;;;5025343;28;59419;-78
2024/01/02 11:54:21;;;;;;;;;;;;;;;;;;5009936;28;59096;-73
2024/01/02 11:56:46;;;;;;;;;;;;;;;;;;5020377;28;59229;-73
2024/01/02 11:59:11;;;;;;;;;;;;;;;;;;5024690;28;60339;-72
2024/01/02 12:01:36;;;;;;;;;;;;;;;;;;5020576;28;60209;-82
2024/01/02 12:04:01;;;;;;;;;;;;;;;;;;5020337;28;58447;-80
2024/01/02 12:06:26;;;;;;;;;;;;;;;;;;5024094;28;59892;-82
2024/01/02 12:08:52;;;;;;;;;;;;;;;;;;5024310;27;58286;-81
2024/01/02 12:11:17;;;;;;;;;;;;;;;;;;5024934;28;59470;-84
2024/01/02 12:13:42;;;;;;;;;;;;;;;;;;5022342;28;60191;-88
2024/01/02 12:16:07;;;;;;;;;;;;;;;;;;5025129;27;58496;-83
2024/01/02 12:18:32;;;;;;;;;;;;;;;;;;5024120;28;58646;-87
2024/01/02 12:20:57;;;;;;;;;;;;;;;;;;5024852;28;58510;-83
2024/01/02 12:23:22;;;;;;;;;;;;;;;;;;5026192;28;58772;-76
2024/01/02 12:25:47;;;;;;;;;;;;;;;;;;5022038;28;58932;-77
2024/01/02 12:28:12;;;;;;;;;;;;;;;;;;5021983;28;58390;-75
2024/01/02 12:30:38;;;;;;;;;;;;;;;;;;5021184;28;59024;-76
2024/01/02 12:33:03;;;;;;;;;;;;;;;;;;5019620;28;59575;-76
2024/01/02 12:35:28;;;;;;;;;;;;;;;;;;5022636;28;58698;-78
2024/01/02 12:37:53;;;;;;;;;;;;;;;;;;5023326;28;59412;-75
2024/01/02 12:40:18;;;;;;;;;;;;;;;;;;5021732;27;59843;-74
2024/01/02 12:42:44;;;;;;;;;;;;;;;;;;5022261;28;58545;-76
2024/01/02 12:45:09;;;;;;;;;;;;;;;;;;5024426;28;59694;-74
2024/01/02 12:47:34;;;;;;;;;;;;;;;;;;5022233;28;58908;-75
2024/01/02 12:49:59;;;;;;;;;;;;;;;;;;5025063;28;59498;-75
2024/01/02 12:52:25;;;;;;;;;;;;;;;;;;5021157;28;59127;-76
2024/01/02 12:54:50;;;;;;;;;;;;;;;;;;5018985;28;59731;-76
2024/01/02 12:57:16;;;;;;;;;;;;;;;;;;5020940;28;60193;-70
2024/01/02 12:59:41;;;;;;;;;;;;;;;;;;5022110;27;59639;-77
2024/01/02 13:02:07;;;;;;;;;;;;;;;;;;5023839;28;59065;-75
2024/01/02 13:04:35;;;;;;;;;;;;;;;;;;5023568;28;59407;-76
2024/01/02 13:07:00;;;;;;;;;;;;;;;;;;5022246;28;58718;-74
2024/01/02 13:09:26;;;;;;;;;;;;;;;;;;5022605;28;59516;-74
2024/01/02 13:11:51;;;;;;;;;;;;;;;;;;5022484;28;77798;-75
2024/01/02 13:14:16;;;;;;;;;;;;;;;;;;5020684;28;58548;-76
2024/01/02 13:16:41;;;;;;;;;;;;;;;;;;5023986;28;59664;-76
2024/01/02 13:19:07;;;;;;;;;;;;;;;;;;5021475;28;59926;-79
2024/01/02 13:21:32;;;;;;;;;;;;;;;;;;5021656;28;58592;-76
2024/01/02 13:23:57;;;;;;;;;;;;;;;;;;5022649;28;60057;-77
2024/01/02 13:26:25;;;;;;;;;;;;;;;;;;5022448;28;58810;-77
2024/01/02 13:28:50;;;;;;;;;;;;;;;;;;5021375;28;62415;-81
2024/01/02 13:31:15;;;;;;;;;;;;;;;;;;5022737;28;59260;-82
2024/01/02 13:33:41;;;;;;;;;;;;;;;;;;5021183;28;58378;-81
2024/01/02 13:36:06;;;;;;;;;;;;;;;;;;5022404;28;61063;-79
2024/01/02 13:38:31;;;;;;;;;;;;;;;;;;5021657;28;59522;-75
2024/01/02 13:40:57;;;;;;;;;;;;;;;;;;5023369;28;58845;-75
2024/01/02 13:43:22;;;;;;;;;;;;;;;;;;5021178;28;59826;-78
2024/01/02 13:45:47;;;;;;;;;;;;;;;;;;5019031;28;78574;-76
2024/01/02 13:48:12;;;;;;;;;;;;;;;;;;5021864;28;58637;-77
2024/01/02 13:50:38;;;;;;;;;;;;;;;;;;5021420;28;59951;-79
2024/01/02 13:53:04;;;;;;;;;;;;;;;;;;5023652;28;58518;-77
2024/01/02 13:55:29;;;;;;;;;;;;;;;;;;5023017;28;59349;-76
2024/01/02 13:57:54;;;;;;;;;;;;;;;;;;5020259;27;60874;-77
2024/01/02 14:00:19;;;;;;;;;;;;;;;;;;5023995;28;58440;-77
2024/01/02 14:02:44;;;;;;;;;;;;;;;;;;5021329;28;58425;-78
2024/01/02 14:05:10;;;;;;;;;;;;;;;;;;5021510;28;59245;-79
2024/01/02 14:07:35;;;;;;;;;;;;;;;;;;5023372;28;58485;-80
2024/01/02 14:10:00;;;;;;;;;;;;;;;;;;5022220;28;61167;-80
2024/01/02 14:12:25;;;;;;;;;;;;;;;;;;5022418;28;58481;-79
2024/01/02 14:14:51;;;;;;;;;;;;;;;;;;5022922;28;60800;-79
2024/01/02 14:17:16;;;;;;;;;;;;;;;;;;5022830;28;59556;-80
2024/01/02 14:19:41;;;;;;;;;;;;;;;;;;5026304;28;58742;-81
2024/01/02 14:22:06;;;;;;;;;;;;;;;;;;5026034;28;59373;-77
2024/01/02 14:24:31;;;;;;;;;;;;;;;;;;5023856;28;61044;-79
2024/01/02 14:27:00;;;;;;;;;;;;;;;;;;5025569;28;58749;-77
2024/01/02 14:29:25;;;;;;;;;;;;;;;;;;5026081;27;59702;-78
2024/01/02 14:31:50;;;;;;;;;;;;;;;;;;5025468;28;58918;-77
2024/01/02 14:34:15;;;;;;;;;;;;;;;;;;5025294;27;59402;-79
2024/01/02 14:36:40;;;;;;;;;;;;;;;;;;5025911;27;59432;-81
2024/01/02 14:39:05;;;;;;;;;;;;;;;;;;5024281;28;58891;-79
2024/01/02 14:41:31;;;;;;;;;;;;;;;;;;5024394;28;60038;-79
2024/01/02 14:43:56;;;;;;;;;;;;;;;;;;5023259;28;58949;-80
2024/01/02 14:46:21;;;;;;;;;;;;;;;;;;5026599;28;59103;-81
2024/01/02 14:48:46;;;;;;;;;;;;;;;;;;5026083;28;60245;-80
2024/01/02 14:51:13;;;;;;;;;;;;;;;;;;5026029;28;59092;-81
2024/01/02 14:53:38;;;;;;;;;;;;;;;;;;5024961;28;59242;-80
2024/01/02 14:56:03;;;;;;;;;;;;;;;;;;5023832;28;59804;-82
2024/01/02 14:58:28;;;;;;;;;;;;;;;;;;5026821;28;59415;-78
2024/01/02 15:00:53;;;;;;;;;;;;;;;;;;5024410;28;58739;-77
2024/01/02 15:03:18;;;;;;;;;;;;;;;;;;5027798;28;58711;-77
2024/01/02 15:05:44;;;;;;;;;;;;;;;;;;5026188;28;59274;-80
2024/01/02 15:08:09;;;;;;;;;;;;;;;;;;5024950;28;60113;-80
2024/01/02 15:10:34;;;;;;;;;;;;;;;;;;5021876;28;59255;-78
2024/01/02 15:12:59;;;;;;;;;;;;;;;;;;5023334;28;59311;-76
2024/01/02 15:15:24;;;;;;;;;;;;;;;;;;5022803;28;60114;-81
2024/01/02 15:17:49;;;;;;;;;;;;;;;;;;5023402;28;58579;-75
2024/01/02 15:20:14;;;;;;;;;;;;;;;;;;5025039;28;59409;-76
2024/01/02 15:22:39;;;;;;;;;;;;;;;;;;5022483;28;59820;-71
2024/01/02 15:25:04;;;;;;;;;;;;;;;;;;5021993;27;58982;-73
2024/01/02 15:27:29;;;;;;;;;;;;;;;;;;5022452;28;60326;-72
2024/01/02 15:29:55;;;;;;;;;;;;;;;;;;5023589;28;59972;-72
2024/01/02 15:32:20;;;;;;;;;;;;;;;;;;5024649;28;58924;-79
2024/01/02 15:34:46;;;;;;;;;;;;;;;;;;5026208;28;60419;-78
2024/01/02 15:37:11;;;;;;;;;;;;;;;;;;5026007;28;58794;-82
2024/01/02 15:39:36;;;;;;;;;;;;;;;;;;5023997;28;59389;-81
2024/01/02 15:42:03;;;;;;;;;;;;;;;;;;5022983;27;58979;-80
2024/01/02 15:44:28;;;;;;;;;;;;;;;;;;5025501;28;58956;-79
2024/01/02 15:46:53;;;;;;;;;;;;;;;;;;5023935;28;60333;-79
2024/01/02 15:49:18;;;;;;;;;;;;;;;;;;5024267;28;59143;-82
2024/01/02 15:51:43;;;;;;;;;;;;;;;;;;5024398;28;58777;-73
2024/01/02 15:54:08;;;;;;;;;;;;;;;;;;5022770;28;59385;-76
2024/01/02 15:56:34;;;;;;;;;;;;;;;;;;5021709;28;59188;-74
2024/01/02 15:58:59;;;;;;;;;;;;;;;;;;5022749;28;60047;-76
2024/01/02 16:01:24;;;;;;;;;;;;;;;;;;5021797;28;59541;-73
2024/01/02 16:03:49;;;;;;;;;;;;;;;;;;5021103;28;58802;-73
2024/01/02 16:06:14;;;;;;;;;;;;;;;;;;5023551;28;58496;-74
2024/01/02 16:08:40;;;;;;;;;;;;;;;;;;5022401;28;59695;-73
2024/01/02 16:11:05;;;;;;;;;;;;;;;;;;5025114;28;58892;-72
2024/01/02 16:13:30;;;;;;;;;;;;;;;;;;5024432;28;58476;-73
2024/01/02 16:15:55;;;;;;;;;;;;;;;;;;5021006;28;60702;-73
2024/01/02 16:18:20;;;;;;;;;;;;;;;;;;5023915;28;59324;-75
2024/01/02 16:20:47;;;;;;;;;;;;;;;;;;5019206;28;58899;-75
2024/01/02 16:23:12;;;;;;;;;;;;;;;;;;5021634;28;58735;-77
2024/01/02 16:25:38;;;;;;;;;;;;;;;;;;5022553;28;59547;-78
2024/01/02 16:28:04;;;;;;;;;;;;;;;;;;5021389;27;59369;-77
2024/01/02 16:30:30;;;;;;;;;;;;;;;;;;5021630;28;58631;-78